createdAt,value
2022-08-26T00:00:27.616Z,24.39
2022-08-26T00:01:29.821Z,24.42
2022-08-26T00:02:27.656Z,24.42
2022-08-26T00:03:27.594Z,24.44
2022-08-26T00:04:27.662Z,24.37
2022-08-26T00:05:27.581Z,24.39
2022-08-26T00:06:27.560Z,24.42
2022-08-26T00:07:27.541Z,24.41
2022-08-26T00:08:27.531Z,24.41
2022-08-26T00:09:27.521Z,24.41
2022-08-26T00:10:27.556Z,24.41
2022-08-26T00:11:27.496Z,24.38
2022-08-26T00:12:36.067Z,24.41
2022-08-26T00:13:28.467Z,24.39
2022-08-26T00:14:30.893Z,24.23
2022-08-26T00:15:27.445Z,24.29
2022-08-26T00:16:27.513Z,24.29
2022-08-26T00:17:27.430Z,24.31
2022-08-26T00:18:27.412Z,24.31
2022-08-26T00:19:27.409Z,24.29
2022-08-26T00:20:27.405Z,24.39
2022-08-26T00:21:27.391Z,24.34
2022-08-26T00:22:27.379Z,24.22
2022-08-26T00:23:28.960Z,24.29
2022-08-26T00:24:27.353Z,24.26
2022-08-26T00:25:27.347Z,24.35
2022-08-26T00:26:28.542Z,24.24
2022-08-26T00:27:27.311Z,24.34
2022-08-26T00:28:27.310Z,24.27
2022-08-26T00:29:27.289Z,24.32
2022-08-26T00:30:27.289Z,24.38
2022-08-26T00:31:27.332Z,24.29
2022-08-26T00:32:27.287Z,24.31
2022-08-26T00:33:27.251Z,24.39
2022-08-26T00:34:27.235Z,24.24
2022-08-26T00:35:27.950Z,24.19
2022-08-26T00:36:29.663Z,24.22
2022-08-26T00:37:27.207Z,24.19
2022-08-26T00:38:27.210Z,24.23
2022-08-26T00:39:27.178Z,24.26
2022-08-26T00:40:27.243Z,24.16
2022-08-26T00:41:27.154Z,24.12
2022-08-26T00:42:27.157Z,24.12
2022-08-26T00:43:27.132Z,24.20
2022-08-26T00:44:27.144Z,24.20
2022-08-26T00:45:27.150Z,24.17
2022-08-26T00:46:27.109Z,24.13
2022-08-26T00:47:27.087Z,24.07
2022-08-26T00:48:27.085Z,24.13
2022-08-26T00:49:27.073Z,24.10
2022-08-26T00:50:27.083Z,24.10
2022-08-26T00:51:29.753Z,24.13
2022-08-26T00:52:27.032Z,24.16
2022-08-26T00:53:27.834Z,24.17
2022-08-26T00:54:27.307Z,24.14
2022-08-26T00:55:34.721Z,24.22
2022-08-26T00:56:28.009Z,24.08
2022-08-26T00:57:26.985Z,24.16
2022-08-26T00:58:26.967Z,24.13
2022-08-26T00:59:26.964Z,24.05
2022-08-26T01:00:26.948Z,24.10
2022-08-26T01:01:26.990Z,24.14
2022-08-26T01:02:26.960Z,23.98
2022-08-26T01:03:26.912Z,24.04
2022-08-26T01:04:26.902Z,23.87
2022-08-26T01:05:26.895Z,24.05
2022-08-26T01:06:26.879Z,23.94
2022-08-26T01:07:27.552Z,24.00
2022-08-26T01:08:26.852Z,23.79
2022-08-26T01:09:26.851Z,23.77
2022-08-26T01:10:26.832Z,23.83
2022-08-26T01:11:26.828Z,23.92
2022-08-26T01:12:26.842Z,23.85
2022-08-26T01:13:26.816Z,23.65
2022-08-26T01:14:26.793Z,23.75
2022-08-26T01:15:26.787Z,23.70
2022-08-26T01:16:26.869Z,23.62
2022-08-26T01:17:26.768Z,23.57
2022-08-26T01:18:26.783Z,23.58
2022-08-26T01:19:26.747Z,23.50
2022-08-26T01:20:26.722Z,23.55
2022-08-26T01:21:26.714Z,23.55
2022-08-26T01:22:28.324Z,23.47
2022-08-26T01:23:26.692Z,23.53
2022-08-26T01:24:26.703Z,23.47
2022-08-26T01:25:26.671Z,23.53
2022-08-26T01:26:26.666Z,23.45
2022-08-26T01:27:26.658Z,23.42
2022-08-26T01:28:27.639Z,23.38
2022-08-26T01:29:26.646Z,23.45
2022-08-26T01:30:26.621Z,23.40
2022-08-26T01:31:26.688Z,23.39
2022-08-26T01:32:26.601Z,23.45
2022-08-26T01:33:26.584Z,23.31
2022-08-26T01:34:26.594Z,23.35
2022-08-26T01:35:26.562Z,23.35
2022-08-26T01:36:26.549Z,23.31
2022-08-26T01:37:26.549Z,23.31
2022-08-26T01:38:26.532Z,23.26
2022-08-26T01:39:27.538Z,23.31
2022-08-26T01:40:26.583Z,23.27
2022-08-26T01:41:27.517Z,23.22
2022-08-26T01:42:26.485Z,23.19
2022-08-26T01:43:26.481Z,23.14
2022-08-26T01:44:26.464Z,23.24
2022-08-26T01:45:26.574Z,23.12
2022-08-26T01:46:26.450Z,23.15
2022-08-26T01:47:26.442Z,23.08
2022-08-26T01:48:26.420Z,23.14
2022-08-26T01:49:26.409Z,23.11
2022-08-26T01:50:27.868Z,23.11
2022-08-26T01:51:26.403Z,23.11
2022-08-26T01:52:27.593Z,23.09
2022-08-26T01:53:26.367Z,22.99
2022-08-26T01:54:26.354Z,23.02
2022-08-26T01:55:33.090Z,22.99
2022-08-26T01:56:33.312Z,22.96
2022-08-26T01:57:27.333Z,22.97
2022-08-26T01:58:26.315Z,22.97
2022-08-26T01:59:26.309Z,22.97
2022-08-26T02:00:26.292Z,22.96
2022-08-26T02:01:29.146Z,22.99
2022-08-26T02:02:26.290Z,22.89
2022-08-26T02:03:26.279Z,22.93
2022-08-26T02:04:26.294Z,22.78
2022-08-26T02:05:26.239Z,22.83
2022-08-26T02:06:26.221Z,22.86
2022-08-26T02:07:26.653Z,22.82
2022-08-26T02:08:26.215Z,22.84
2022-08-26T02:09:26.192Z,22.87
2022-08-26T02:10:26.181Z,22.90
2022-08-26T02:11:26.178Z,22.74
2022-08-26T02:12:26.156Z,22.84
2022-08-26T02:13:26.146Z,22.82
2022-08-26T02:14:26.824Z,22.80
2022-08-26T02:15:26.127Z,22.80
2022-08-26T02:16:26.143Z,22.72
2022-08-26T02:17:26.121Z,22.72
2022-08-26T02:18:26.093Z,22.77
2022-08-26T02:19:26.093Z,22.74
2022-08-26T02:20:26.587Z,22.68
2022-08-26T02:21:26.065Z,22.68
2022-08-26T02:22:26.058Z,22.62
2022-08-26T02:23:26.049Z,22.56
2022-08-26T02:24:27.383Z,22.57
2022-08-26T02:25:26.035Z,22.62
2022-08-26T02:26:27.143Z,22.64
2022-08-26T02:27:26.000Z,22.64
2022-08-26T02:28:26.521Z,22.64
2022-08-26T02:29:25.975Z,22.60
2022-08-26T02:30:26.143Z,22.57
2022-08-26T02:31:26.029Z,22.54
2022-08-26T02:32:25.956Z,22.56
2022-08-26T02:33:25.942Z,22.59
2022-08-26T02:34:25.924Z,22.54
2022-08-26T02:35:25.920Z,22.60
2022-08-26T02:36:28.538Z,22.54
2022-08-26T02:37:25.892Z,22.41
2022-08-26T02:38:25.873Z,22.44
2022-08-26T02:39:25.874Z,22.44
2022-08-26T02:40:26.051Z,22.47
2022-08-26T02:41:25.848Z,22.47
2022-08-26T02:42:25.836Z,22.47
2022-08-26T02:43:31.249Z,22.49
2022-08-26T02:44:26.806Z,22.46
2022-08-26T02:45:25.799Z,22.44
2022-08-26T02:46:27.824Z,22.46
2022-08-26T02:47:25.777Z,22.32
2022-08-26T02:48:25.763Z,22.31
2022-08-26T02:49:25.755Z,22.41
2022-08-26T02:50:25.748Z,22.46
2022-08-26T02:51:25.754Z,22.35
2022-08-26T02:52:25.728Z,22.31
2022-08-26T02:53:25.814Z,22.34
2022-08-26T02:54:25.705Z,22.29
2022-08-26T02:55:25.694Z,22.31
2022-08-26T02:56:25.700Z,22.28
2022-08-26T02:57:25.674Z,22.17
2022-08-26T02:58:25.662Z,22.22
2022-08-26T02:59:25.646Z,22.22
2022-08-26T03:00:25.711Z,22.20
2022-08-26T03:01:25.693Z,22.14
2022-08-26T03:02:25.698Z,22.20
2022-08-26T03:03:25.609Z,22.06
2022-08-26T03:04:25.958Z,22.14
2022-08-26T03:05:25.588Z,22.27
2022-08-26T03:06:25.579Z,22.17
2022-08-26T03:07:25.604Z,22.22
2022-08-26T03:08:25.546Z,22.14
2022-08-26T03:09:25.535Z,22.23
2022-08-26T03:10:26.018Z,22.07
2022-08-26T03:11:27.611Z,22.12
2022-08-26T03:12:26.558Z,22.13
2022-08-26T03:13:25.499Z,22.22
2022-08-26T03:14:25.488Z,22.10
2022-08-26T03:15:25.477Z,22.12
2022-08-26T03:16:25.536Z,22.13
2022-08-26T03:17:26.958Z,22.12
2022-08-26T03:18:25.460Z,22.20
2022-08-26T03:19:25.427Z,22.12
2022-08-26T03:20:25.422Z,22.17
2022-08-26T03:21:25.405Z,22.14
2022-08-26T03:22:25.400Z,22.10
2022-08-26T03:23:25.401Z,22.13
2022-08-26T03:24:25.379Z,22.17
2022-08-26T03:25:25.371Z,22.20
2022-08-26T03:26:25.365Z,22.25
2022-08-26T03:27:25.342Z,22.10
2022-08-26T03:28:27.173Z,22.16
2022-08-26T03:29:25.339Z,22.19
2022-08-26T03:30:25.307Z,22.22
2022-08-26T03:31:25.352Z,22.16
2022-08-26T03:32:26.972Z,22.22
2022-08-26T03:33:25.273Z,22.25
2022-08-26T03:34:25.285Z,22.20
2022-08-26T03:35:25.252Z,22.17
2022-08-26T03:36:25.247Z,22.17
2022-08-26T03:37:25.246Z,22.14
2022-08-26T03:38:25.231Z,22.28
2022-08-26T03:39:25.225Z,22.25
2022-08-26T03:40:25.377Z,22.25
2022-08-26T03:41:25.195Z,22.25
2022-08-26T03:42:25.177Z,22.25
2022-08-26T03:43:25.171Z,22.14
2022-08-26T03:44:25.175Z,22.23
2022-08-26T03:45:25.151Z,22.25
2022-08-26T03:46:25.184Z,22.23
2022-08-26T03:47:25.121Z,22.20
2022-08-26T03:48:25.121Z,22.27
2022-08-26T03:49:25.114Z,22.34
2022-08-26T03:50:25.086Z,22.20
2022-08-26T03:51:25.084Z,22.19
2022-08-26T03:52:25.065Z,22.31
2022-08-26T03:53:25.066Z,22.27
2022-08-26T03:54:25.060Z,22.29
2022-08-26T03:55:25.068Z,22.32
2022-08-26T03:56:25.029Z,22.35
2022-08-26T03:57:25.025Z,22.35
2022-08-26T03:58:25.000Z,22.31
2022-08-26T03:59:24.999Z,22.38
2022-08-26T04:00:24.985Z,22.32
2022-08-26T04:01:25.067Z,22.35
2022-08-26T04:02:24.984Z,22.34
2022-08-26T04:03:25.006Z,22.37
2022-08-26T04:04:24.933Z,22.41
2022-08-26T04:05:24.927Z,22.29
2022-08-26T04:06:24.937Z,22.39
2022-08-26T04:07:24.917Z,22.29
2022-08-26T04:08:24.896Z,22.25
2022-08-26T04:09:24.888Z,22.32
2022-08-26T04:10:29.126Z,22.37
2022-08-26T04:11:24.871Z,22.32
2022-08-26T04:12:24.878Z,22.31
2022-08-26T04:13:24.842Z,22.32
2022-08-26T04:14:24.824Z,22.39
2022-08-26T04:15:24.815Z,22.38
2022-08-26T04:16:24.991Z,22.35
2022-08-26T04:17:25.110Z,22.44
2022-08-26T04:18:24.786Z,22.39
2022-08-26T04:19:24.770Z,22.43
2022-08-26T04:20:24.759Z,22.41
2022-08-26T04:21:24.756Z,22.50
2022-08-26T04:22:25.041Z,22.47
2022-08-26T04:23:24.728Z,22.44
2022-08-26T04:24:24.725Z,22.43
2022-08-26T04:25:24.705Z,22.41
2022-08-26T04:26:24.692Z,22.39
2022-08-26T04:27:24.704Z,22.49
2022-08-26T04:28:24.682Z,22.46
2022-08-26T04:29:24.664Z,22.46
2022-08-26T04:30:24.657Z,22.59
2022-08-26T04:31:24.680Z,22.44
2022-08-26T04:32:24.640Z,22.41
2022-08-26T04:33:32.215Z,22.54
2022-08-26T04:34:28.566Z,22.39
2022-08-26T04:35:26.154Z,22.46
2022-08-26T04:36:24.591Z,22.43
2022-08-26T04:37:24.597Z,22.44
2022-08-26T04:38:24.566Z,22.47
2022-08-26T04:39:24.553Z,22.39
2022-08-26T04:40:24.648Z,22.49
2022-08-26T04:41:24.529Z,22.52
2022-08-26T04:42:26.023Z,22.52
2022-08-26T04:43:24.548Z,22.53
2022-08-26T04:44:24.552Z,22.49
2022-08-26T04:45:24.502Z,22.49
2022-08-26T04:46:24.607Z,22.52
2022-08-26T04:47:27.033Z,22.47
2022-08-26T04:48:24.452Z,22.49
2022-08-26T04:49:24.458Z,22.47
2022-08-26T04:50:24.429Z,22.57
2022-08-26T04:51:24.423Z,22.52
2022-08-26T04:52:24.407Z,22.52
2022-08-26T04:53:24.403Z,22.53
2022-08-26T04:54:25.175Z,22.54
2022-08-26T04:55:38.162Z,22.59
2022-08-26T04:56:25.394Z,22.64
2022-08-26T04:57:24.362Z,22.54
2022-08-26T04:58:24.345Z,22.62
2022-08-26T04:59:24.530Z,22.71
2022-08-26T05:00:24.328Z,22.64
2022-08-26T05:01:24.351Z,22.77
2022-08-26T05:02:24.307Z,22.87
2022-08-26T05:03:24.296Z,22.96
2022-08-26T05:04:24.411Z,22.80
2022-08-26T05:05:24.277Z,22.82
2022-08-26T05:06:24.256Z,22.86
2022-08-26T05:07:24.247Z,22.87
2022-08-26T05:08:24.251Z,22.84
2022-08-26T05:09:24.221Z,22.78
2022-08-26T05:10:24.257Z,22.89
2022-08-26T05:11:24.209Z,22.82
2022-08-26T05:12:24.201Z,22.87
2022-08-26T05:13:24.185Z,22.82
2022-08-26T05:14:24.182Z,22.82
2022-08-26T05:15:24.160Z,22.80
2022-08-26T05:16:24.219Z,22.89
2022-08-26T05:17:24.137Z,22.92
2022-08-26T05:18:24.126Z,22.86
2022-08-26T05:19:24.129Z,22.92
2022-08-26T05:20:26.145Z,22.90
2022-08-26T05:21:24.105Z,22.89
2022-08-26T05:22:24.086Z,22.94
2022-08-26T05:23:24.067Z,22.96
2022-08-26T05:24:24.064Z,22.87
2022-08-26T05:25:24.055Z,22.93
2022-08-26T05:26:24.072Z,23.04
2022-08-26T05:27:24.029Z,23.01
2022-08-26T05:28:24.016Z,23.01
2022-08-26T05:29:23.999Z,22.97
2022-08-26T05:30:24.009Z,23.04
2022-08-26T05:31:24.059Z,23.05
2022-08-26T05:32:23.988Z,22.87
2022-08-26T05:33:23.962Z,23.04
2022-08-26T05:34:23.953Z,22.96
2022-08-26T05:35:24.937Z,22.82
2022-08-26T05:36:23.930Z,22.89
2022-08-26T05:37:23.926Z,22.90
2022-08-26T05:38:23.907Z,22.89
2022-08-26T05:39:23.895Z,22.86
2022-08-26T05:40:23.947Z,22.86
2022-08-26T05:41:23.866Z,22.78
2022-08-26T05:42:23.870Z,22.75
2022-08-26T05:43:23.948Z,22.68
2022-08-26T05:44:23.838Z,22.74
2022-08-26T05:45:23.829Z,22.80
2022-08-26T05:46:23.870Z,22.82
2022-08-26T05:47:23.805Z,22.67
2022-08-26T05:48:24.291Z,22.75
2022-08-26T05:49:26.320Z,22.77
2022-08-26T05:50:23.783Z,22.74
2022-08-26T05:51:26.016Z,22.62
2022-08-26T05:52:25.852Z,22.65
2022-08-26T05:53:25.898Z,22.62
2022-08-26T05:54:23.752Z,22.72
2022-08-26T05:55:23.718Z,22.72
2022-08-26T05:56:23.706Z,22.75
2022-08-26T05:57:23.697Z,22.71
2022-08-26T05:58:23.687Z,22.69
2022-08-26T05:59:24.669Z,22.72
2022-08-26T06:00:23.659Z,22.72
2022-08-26T06:01:24.231Z,22.71
2022-08-26T06:02:23.701Z,22.74
2022-08-26T06:03:23.630Z,22.86
2022-08-26T06:04:24.879Z,22.80
2022-08-26T06:05:23.624Z,22.82
2022-08-26T06:06:27.314Z,22.75
2022-08-26T06:07:24.584Z,22.82
2022-08-26T06:08:23.576Z,22.77
2022-08-26T06:09:23.558Z,22.80
2022-08-26T06:10:32.223Z,22.77
2022-08-26T06:11:24.539Z,22.74
2022-08-26T06:12:23.523Z,22.75
2022-08-26T06:13:23.542Z,22.86
2022-08-26T06:14:23.501Z,22.84
2022-08-26T06:15:23.534Z,22.87
2022-08-26T06:16:23.596Z,22.78
2022-08-26T06:17:23.476Z,22.89
2022-08-26T06:18:23.456Z,22.86
2022-08-26T06:19:23.452Z,22.87
2022-08-26T06:20:23.441Z,22.84
2022-08-26T06:21:23.442Z,22.84
2022-08-26T06:22:23.845Z,22.86
2022-08-26T06:23:23.402Z,22.89
2022-08-26T06:24:27.164Z,22.89
2022-08-26T06:25:23.385Z,22.89
2022-08-26T06:26:23.377Z,22.93
2022-08-26T06:27:23.378Z,22.87
2022-08-26T06:28:23.356Z,22.86
2022-08-26T06:29:24.271Z,22.89
2022-08-26T06:30:23.324Z,22.83
2022-08-26T06:31:23.349Z,22.89
2022-08-26T06:32:23.330Z,22.87
2022-08-26T06:33:23.291Z,22.92
2022-08-26T06:34:23.281Z,23.01
2022-08-26T06:35:24.268Z,22.87
2022-08-26T06:36:23.257Z,23.05
2022-08-26T06:37:23.268Z,22.93
2022-08-26T06:38:23.244Z,22.94
2022-08-26T06:39:23.239Z,22.99
2022-08-26T06:40:23.271Z,22.96
2022-08-26T06:41:23.214Z,22.97
2022-08-26T06:42:23.232Z,23.05
2022-08-26T06:43:23.183Z,22.92
2022-08-26T06:44:23.169Z,22.93
2022-08-26T06:45:23.159Z,23.01
2022-08-26T06:46:23.251Z,23.05
2022-08-26T06:47:23.142Z,22.99
2022-08-26T06:48:23.148Z,23.04
2022-08-26T06:49:25.809Z,23.07
2022-08-26T06:50:23.104Z,23.08
2022-08-26T06:51:23.685Z,23.08
2022-08-26T06:52:24.455Z,23.09
2022-08-26T06:53:23.097Z,23.09
2022-08-26T06:54:23.082Z,23.15
2022-08-26T06:55:23.048Z,23.08
2022-08-26T06:56:23.049Z,23.14
2022-08-26T06:57:23.025Z,23.12
2022-08-26T06:58:23.032Z,23.19
2022-08-26T06:59:23.003Z,23.05
2022-08-26T07:00:23.031Z,23.05
2022-08-26T07:01:23.035Z,23.17
2022-08-26T07:02:22.974Z,23.14
2022-08-26T07:03:22.959Z,23.08
2022-08-26T07:04:23.031Z,23.12
2022-08-26T07:05:22.937Z,23.12
2022-08-26T07:06:22.930Z,23.15
2022-08-26T07:07:22.922Z,23.19
2022-08-26T07:08:22.906Z,23.14
2022-08-26T07:09:22.918Z,23.15
2022-08-26T07:10:22.940Z,23.11
2022-08-26T07:11:22.873Z,23.08
2022-08-26T07:12:22.871Z,23.14
2022-08-26T07:13:30.912Z,23.05
2022-08-26T07:14:23.877Z,23.09
2022-08-26T07:15:27.173Z,23.19
2022-08-26T07:16:23.884Z,23.14
2022-08-26T07:17:24.936Z,23.08
2022-08-26T07:18:22.798Z,23.17
2022-08-26T07:19:30.607Z,23.12
2022-08-26T07:20:23.791Z,23.17
2022-08-26T07:21:22.763Z,23.02
2022-08-26T07:22:22.760Z,23.12
2022-08-26T07:23:22.746Z,23.11
2022-08-26T07:24:22.730Z,23.15
2022-08-26T07:25:22.738Z,23.24
2022-08-26T07:26:22.718Z,23.19
2022-08-26T07:27:22.695Z,23.29
2022-08-26T07:28:22.691Z,23.23
2022-08-26T07:29:22.675Z,23.27
2022-08-26T07:30:22.727Z,23.24
2022-08-26T07:31:22.756Z,23.31
2022-08-26T07:32:22.970Z,23.40
2022-08-26T07:33:22.636Z,23.35
2022-08-26T07:34:22.621Z,23.46
2022-08-26T07:35:22.606Z,23.38
2022-08-26T07:36:22.612Z,23.35
2022-08-26T07:37:22.586Z,23.40
2022-08-26T07:38:22.587Z,23.39
2022-08-26T07:39:22.568Z,23.35
2022-08-26T07:40:22.653Z,23.43
2022-08-26T07:41:22.641Z,23.20
2022-08-26T07:42:22.540Z,23.38
2022-08-26T07:43:22.525Z,23.34
2022-08-26T07:44:22.509Z,23.24
2022-08-26T07:45:22.503Z,23.29
2022-08-26T07:46:27.195Z,23.27
2022-08-26T07:47:25.885Z,23.31
2022-08-26T07:48:22.472Z,23.23
2022-08-26T07:49:22.518Z,23.34
2022-08-26T07:50:22.448Z,23.22
2022-08-26T07:51:23.453Z,23.29
2022-08-26T07:52:26.146Z,23.27
2022-08-26T07:53:24.231Z,23.19
2022-08-26T07:54:26.889Z,23.24
2022-08-26T07:55:22.391Z,23.24
2022-08-26T07:56:22.394Z,23.27
2022-08-26T07:57:22.365Z,23.31
2022-08-26T07:58:22.359Z,23.27
2022-08-26T07:59:22.353Z,23.38
2022-08-26T08:00:22.345Z,23.32
2022-08-26T08:01:22.415Z,23.39
2022-08-26T08:02:22.317Z,23.39
2022-08-26T08:03:22.296Z,23.38
2022-08-26T08:04:26.439Z,23.35
2022-08-26T08:05:22.369Z,23.34
2022-08-26T08:06:22.291Z,23.38
2022-08-26T08:07:25.752Z,23.32
2022-08-26T08:08:26.699Z,23.32
2022-08-26T08:09:22.370Z,23.38
2022-08-26T08:10:22.228Z,23.34
2022-08-26T08:11:22.225Z,23.29
2022-08-26T08:12:22.197Z,23.27
2022-08-26T08:13:22.206Z,23.26
2022-08-26T08:14:22.496Z,23.23
2022-08-26T08:15:22.172Z,23.31
2022-08-26T08:16:22.222Z,23.27
2022-08-26T08:17:22.140Z,23.24
2022-08-26T08:18:22.136Z,23.26
2022-08-26T08:19:22.127Z,23.27
2022-08-26T08:20:22.137Z,23.29
2022-08-26T08:21:23.512Z,23.23
2022-08-26T08:22:22.097Z,23.26
2022-08-26T08:23:22.076Z,23.24
2022-08-26T08:24:22.073Z,23.26
2022-08-26T08:25:22.066Z,23.32
2022-08-26T08:26:22.079Z,23.27
2022-08-26T08:27:24.063Z,23.26
2022-08-26T08:28:22.025Z,23.15
2022-08-26T08:29:22.016Z,23.22
2022-08-26T08:30:22.878Z,23.27
2022-08-26T08:31:52.127Z,23.26
2022-08-26T08:32:22.990Z,23.24
2022-08-26T08:33:22.001Z,23.24
2022-08-26T08:34:21.961Z,23.27
2022-08-26T08:35:21.941Z,23.23
2022-08-26T08:36:21.952Z,23.23
2022-08-26T08:37:21.925Z,23.27
2022-08-26T08:38:21.916Z,23.29
2022-08-26T08:39:22.322Z,23.32
2022-08-26T08:40:21.929Z,23.32
2022-08-26T08:41:21.882Z,23.29
2022-08-26T08:42:23.477Z,23.29
2022-08-26T08:43:21.865Z,23.24
2022-08-26T08:45:21.849Z,23.26
2022-08-26T08:46:21.864Z,23.09
2022-08-26T08:47:21.830Z,23.24
2022-08-26T08:48:22.292Z,23.15
2022-08-26T08:49:22.800Z,23.31
2022-08-26T08:50:21.796Z,23.22
2022-08-26T08:51:21.771Z,23.24
2022-08-26T08:52:21.775Z,23.15
2022-08-26T08:53:21.751Z,23.26
2022-08-26T08:54:21.909Z,23.14
2022-08-26T08:55:21.727Z,23.17
2022-08-26T08:56:21.729Z,23.27
2022-08-26T08:57:21.715Z,23.20
2022-08-26T08:58:21.694Z,23.32
2022-08-26T08:59:21.676Z,23.26
2022-08-26T09:00:21.665Z,23.40
2022-08-26T09:01:22.718Z,23.35
2022-08-26T09:02:21.722Z,23.39
2022-08-26T09:03:21.634Z,23.43
2022-08-26T09:04:21.629Z,23.42
2022-08-26T09:05:21.614Z,23.45
2022-08-26T09:06:21.597Z,23.52
2022-08-26T09:07:21.590Z,23.42
2022-08-26T09:08:21.600Z,23.49
2022-08-26T09:09:21.565Z,23.55
2022-08-26T09:10:21.562Z,23.58
2022-08-26T09:11:21.543Z,23.61
2022-08-26T09:12:21.540Z,23.67
2022-08-26T09:13:25.216Z,23.65
2022-08-26T09:14:21.520Z,23.65
2022-08-26T09:15:21.503Z,23.64
2022-08-26T09:16:21.593Z,23.76
2022-08-26T09:17:21.488Z,23.77
2022-08-26T09:18:21.511Z,23.76
2022-08-26T09:19:21.471Z,23.70
2022-08-26T09:20:21.453Z,23.62
2022-08-26T09:21:21.434Z,23.75
2022-08-26T09:23:21.421Z,23.68
2022-08-26T09:24:22.210Z,23.76
2022-08-26T09:25:21.399Z,23.80
2022-08-26T09:26:23.551Z,23.70
2022-08-26T09:27:22.384Z,23.75
2022-08-26T09:28:21.367Z,23.72
2022-08-26T09:30:21.344Z,23.76
2022-08-26T09:31:21.403Z,23.77
2022-08-26T09:32:21.362Z,23.75
2022-08-26T09:33:21.312Z,23.70
2022-08-26T09:34:21.317Z,23.77
2022-08-26T09:35:21.287Z,23.67
2022-08-26T09:36:21.269Z,23.67
2022-08-26T09:37:21.269Z,23.67
2022-08-26T09:38:21.246Z,23.71
2022-08-26T09:39:21.254Z,23.79
2022-08-26T09:40:21.297Z,23.75
2022-08-26T09:41:21.221Z,23.77
2022-08-26T09:42:21.204Z,23.82
2022-08-26T09:43:22.152Z,23.79
2022-08-26T09:44:21.836Z,23.77
2022-08-26T09:45:21.188Z,23.82
2022-08-26T09:46:21.291Z,23.76
2022-08-26T09:47:21.152Z,23.83
2022-08-26T09:48:21.137Z,23.72
2022-08-26T09:49:21.144Z,23.85
2022-08-26T09:50:21.128Z,23.79
2022-08-26T09:51:21.111Z,23.76
2022-08-26T09:52:21.093Z,23.80
2022-08-26T09:53:21.192Z,23.77
2022-08-26T09:54:22.069Z,23.71
2022-08-26T09:55:22.081Z,23.75
2022-08-26T09:56:21.057Z,23.65
2022-08-26T09:57:21.041Z,23.75
2022-08-26T09:58:21.028Z,23.62
2022-08-26T09:59:21.031Z,23.64
2022-08-26T10:00:21.041Z,23.65
2022-08-26T10:01:21.021Z,23.75
2022-08-26T10:02:21.019Z,23.67
2022-08-26T10:03:21.010Z,23.75
2022-08-26T10:04:21.071Z,23.71
2022-08-26T10:05:20.973Z,23.77
2022-08-26T10:06:21.301Z,23.82
2022-08-26T10:07:20.946Z,23.85
2022-08-26T10:08:20.918Z,23.86
2022-08-26T10:09:20.920Z,23.77
2022-08-26T10:10:20.916Z,23.80
2022-08-26T10:11:20.894Z,23.82
2022-08-26T10:12:20.878Z,23.92
2022-08-26T10:13:20.871Z,23.87
2022-08-26T10:14:20.857Z,23.90
2022-08-26T10:15:20.873Z,23.92
2022-08-26T10:16:20.875Z,24.00
2022-08-26T10:17:20.939Z,23.95
2022-08-26T10:18:20.810Z,24.01
2022-08-26T10:19:20.806Z,24.01
2022-08-26T10:20:22.749Z,24.05
2022-08-26T10:21:20.779Z,24.07
2022-08-26T10:22:20.785Z,24.07
2022-08-26T10:23:20.754Z,24.08
2022-08-26T10:24:20.743Z,24.07
2022-08-26T10:25:20.738Z,24.13
2022-08-26T10:26:20.740Z,24.14
2022-08-26T10:27:20.721Z,24.14
2022-08-26T10:28:20.697Z,24.17
2022-08-26T10:29:20.688Z,24.17
2022-08-26T10:30:20.681Z,24.13
2022-08-26T10:31:20.777Z,24.10
2022-08-26T10:32:21.777Z,24.08
2022-08-26T10:33:20.646Z,24.22
2022-08-26T10:34:21.195Z,24.16
2022-08-26T10:35:20.619Z,24.16
2022-08-26T10:36:21.087Z,24.22
2022-08-26T10:37:20.596Z,24.12
2022-08-26T10:38:20.593Z,24.12
2022-08-26T10:39:20.580Z,24.05
2022-08-26T10:40:20.632Z,24.14
2022-08-26T10:41:20.563Z,24.07
2022-08-26T10:42:20.568Z,24.12
2022-08-26T10:43:20.535Z,24.13
2022-08-26T10:44:20.525Z,24.12
2022-08-26T10:45:20.507Z,24.16
2022-08-26T10:46:20.649Z,24.17
2022-08-26T10:47:20.498Z,24.19
2022-08-26T10:48:20.480Z,24.07
2022-08-26T10:49:20.469Z,24.07
2022-08-26T10:50:20.463Z,24.23
2022-08-26T10:51:20.446Z,24.17
2022-08-26T10:52:20.441Z,24.29
2022-08-26T10:53:24.953Z,24.38
2022-08-26T10:54:21.411Z,24.35
2022-08-26T10:55:20.396Z,24.32
2022-08-26T10:56:20.393Z,24.42
2022-08-26T10:57:20.401Z,24.38
2022-08-26T10:58:26.412Z,24.35
2022-08-26T10:59:21.359Z,24.41
2022-08-26T11:00:20.339Z,24.38
2022-08-26T11:01:22.846Z,24.37
2022-08-26T11:02:24.674Z,24.38
2022-08-26T11:03:22.381Z,24.41
2022-08-26T11:04:20.380Z,24.49
2022-08-26T11:05:20.291Z,24.44
2022-08-26T11:06:20.273Z,24.52
2022-08-26T11:07:20.271Z,24.50
2022-08-26T11:08:20.259Z,24.53
2022-08-26T11:09:20.255Z,24.56
2022-08-26T11:10:21.252Z,24.59
2022-08-26T11:11:20.218Z,24.63
2022-08-26T11:12:20.211Z,24.60
2022-08-26T11:13:20.198Z,24.68
2022-08-26T11:14:29.320Z,24.73
2022-08-26T11:15:24.658Z,24.88
2022-08-26T11:16:20.198Z,24.88
2022-08-26T11:17:20.150Z,24.98
2022-08-26T11:18:20.140Z,24.91
2022-08-26T11:19:20.180Z,24.92
2022-08-26T11:20:20.119Z,25.07
2022-08-26T11:21:20.133Z,25.13
2022-08-26T11:22:20.129Z,25.09
2022-08-26T11:23:20.101Z,25.15
2022-08-26T11:24:20.073Z,25.20
2022-08-26T11:25:20.127Z,25.30
2022-08-26T11:26:35.926Z,25.28
2022-08-26T11:27:21.056Z,25.25
2022-08-26T11:28:20.029Z,25.31
2022-08-26T11:29:20.024Z,25.37
2022-08-26T11:30:20.036Z,25.34
2022-08-26T11:31:20.046Z,25.43
2022-08-26T11:32:19.984Z,25.44
2022-08-26T11:33:19.973Z,25.53
2022-08-26T11:34:19.971Z,25.43
2022-08-26T11:35:19.971Z,25.47
2022-08-26T11:36:19.958Z,25.52
2022-08-26T11:38:19.924Z,25.69
2022-08-26T11:39:19.935Z,25.69
2022-08-26T11:40:19.941Z,25.68
2022-08-26T11:41:19.901Z,25.86
2022-08-26T11:42:20.199Z,25.94
2022-08-26T11:43:19.864Z,25.89
2022-08-26T11:44:19.877Z,25.90
2022-08-26T11:45:20.094Z,25.98
2022-08-26T11:46:19.839Z,26.05
2022-08-26T11:47:19.821Z,26.06
2022-08-26T11:48:19.822Z,26.12
2022-08-26T11:49:19.826Z,26.02
2022-08-26T11:50:19.805Z,26.02
2022-08-26T11:51:19.786Z,26.11
2022-08-26T11:52:20.856Z,26.15
2022-08-26T11:53:19.756Z,26.24
2022-08-26T11:54:30.468Z,26.29
2022-08-26T11:55:20.734Z,26.22
2022-08-26T11:56:19.730Z,26.24
2022-08-26T11:57:19.721Z,26.18
2022-08-26T11:58:19.705Z,26.21
2022-08-26T11:59:19.708Z,26.24
2022-08-26T12:00:22.237Z,26.21
2022-08-26T12:01:19.668Z,26.21
2022-08-26T12:02:19.660Z,26.24
2022-08-26T12:03:19.764Z,26.09
2022-08-26T12:04:19.825Z,26.12
2022-08-26T12:05:19.623Z,26.12
2022-08-26T12:06:19.662Z,26.08
2022-08-26T12:07:24.133Z,26.05
2022-08-26T12:08:19.592Z,26.02
2022-08-26T12:09:19.628Z,26.05
2022-08-26T12:10:19.581Z,26.01
2022-08-26T12:11:19.560Z,26.09
2022-08-26T12:12:19.558Z,25.99
2022-08-26T12:13:19.562Z,26.02
2022-08-26T12:14:19.554Z,26.11
2022-08-26T12:15:19.518Z,26.01
2022-08-26T12:16:19.529Z,26.06
2022-08-26T12:17:19.492Z,26.15
2022-08-26T12:18:20.551Z,26.18
2022-08-26T12:19:19.474Z,26.12
2022-08-26T12:20:19.481Z,26.06
2022-08-26T12:21:19.461Z,26.02
2022-08-26T12:22:20.986Z,26.05
2022-08-26T12:23:19.436Z,25.97
2022-08-26T12:24:19.439Z,25.90
2022-08-26T12:25:19.407Z,25.94
2022-08-26T12:26:19.403Z,25.94
2022-08-26T12:27:19.386Z,25.80
2022-08-26T12:28:19.379Z,25.82
2022-08-26T12:29:26.861Z,25.71
2022-08-26T12:30:20.362Z,25.54
2022-08-26T12:31:19.417Z,25.59
2022-08-26T12:32:19.339Z,25.56
2022-08-26T12:33:19.380Z,25.50
2022-08-26T12:34:19.323Z,25.47
2022-08-26T12:35:19.307Z,25.39
2022-08-26T12:36:19.290Z,25.30
2022-08-26T12:37:19.287Z,25.20
2022-08-26T12:38:19.264Z,25.28
2022-08-26T12:39:19.307Z,25.20
2022-08-26T12:40:19.295Z,25.19
2022-08-26T12:41:19.233Z,25.16
2022-08-26T12:42:19.230Z,25.15
2022-08-26T12:43:19.221Z,25.19
2022-08-26T12:44:19.225Z,25.07
2022-08-26T12:45:19.203Z,25.19
2022-08-26T12:46:19.187Z,25.22
2022-08-26T12:47:23.333Z,25.22
2022-08-26T12:48:20.169Z,25.22
2022-08-26T12:49:19.166Z,25.24
2022-08-26T12:50:19.167Z,25.17
2022-08-26T12:51:19.135Z,25.17
2022-08-26T12:52:19.117Z,25.15
2022-08-26T12:53:19.111Z,25.31
2022-08-26T12:54:19.126Z,25.27
2022-08-26T12:55:19.090Z,25.22
2022-08-26T12:56:19.116Z,25.20